Time;durP1;ratioP1;P1;durP2;ratioP2;P2;SDS_P1;SDS_P2;PMS_P1;PMS_P2;Temp;Humidity;BMP_temperature;BMP_pressure;BME280_temperature;BME280_humidity;BME280_pressure;Samples;Min_cycle;Max_cycle;Signal;HPM_P1;HPM_P2
2022/07/06 00:01:53;;;;;;;7.72;2.10;;;;;;;;;;5034507;27;92494;-70
2022/07/06 00:04:20;;;;;;;3.47;1.80;;;;;;;;;;5033639;27;95869;-70
2022/07/06 00:06:47;;;;;;;5.85;1.65;;;;;;;;;;5033590;27;94307;-71
2022/07/06 00:09:13;;;;;;;5.15;2.28;;;;;;;;;;5040462;27;92467;-70
2022/07/06 00:11:39;;;;;;;4.60;2.25;;;;;;;;;;5040929;27;93039;-71
2022/07/06 00:14:06;;;;;;;6.40;1.70;;;;;;;;;;5051712;27;92471;-70
2022/07/06 00:16:32;;;;;;;3.60;1.50;;;;;;;;;;5045639;27;94060;-70
2022/07/06 00:18:59;;;;;;;9.27;2.08;;;;;;;;;;5039859;27;94133;-70
2022/07/06 00:21:25;;;;;;;6.32;1.63;;;;;;;;;;5041381;27;91704;-70
2022/07/06 00:23:52;;;;;;;7.15;2.08;;;;;;;;;;5040850;27;92963;-70
2022/07/06 00:26:19;;;;;;;4.25;1.52;;;;;;;;;;5032590;27;93609;-70
2022/07/06 00:28:45;;;;;;;10.20;1.83;;;;;;;;;;5031781;27;95021;-70
2022/07/06 00:31:12;;;;;;;4.70;1.70;;;;;;;;;;5039179;27;95380;-70
2022/07/06 00:33:39;;;;;;;4.68;1.40;;;;;;;;;;5035764;27;93648;-71
2022/07/06 00:36:05;;;;;;;5.57;1.70;;;;;;;;;;5035698;27;92796;-70
2022/07/06 00:38:32;;;;;;;4.28;1.77;;;;;;;;;;5031125;27;93301;-70
2022/07/06 00:40:59;;;;;;;5.18;1.33;;;;;;;;;;5014489;28;93659;-70
2022/07/06 00:43:25;;;;;;;3.55;1.60;;;;;;;;;;5032717;27;92833;-69
2022/07/06 00:45:51;;;;;;;2.88;1.20;;;;;;;;;;5041925;27;92235;-69
2022/07/06 00:48:18;;;;;;;2.88;1.75;;;;;;;;;;5015032;27;92605;-70
2022/07/06 00:50:45;;;;;;;12.18;1.40;;;;;;;;;;5033332;27;93632;-70
2022/07/06 00:53:12;;;;;;;6.07;1.85;;;;;;;;;;5051116;27;95735;-70
2022/07/06 00:55:42;;;;;;;3.13;1.55;;;;;;;;;;5056449;27;92604;-70
2022/07/06 00:58:09;;;;;;;6.80;2.03;;;;;;;;;;5049739;27;92450;-70
2022/07/06 01:00:36;;;;;;;2.92;1.45;;;;;;;;;;5022030;27;92558;-70
2022/07/06 01:03:03;;;;;;;3.15;1.40;;;;;;;;;;5018616;28;92992;-70
2022/07/06 01:05:29;;;;;;;4.80;2.00;;;;;;;;;;5041356;27;93775;-70
2022/07/06 01:07:56;;;;;;;2.58;1.42;;;;;;;;;;5037005;27;93594;-70
2022/07/06 01:10:23;;;;;;;6.90;1.73;;;;;;;;;;5021208;28;93140;-70
2022/07/06 01:12:49;;;;;;;4.22;1.77;;;;;;;;;;5023515;27;95383;-70
2022/07/06 01:15:20;;;;;;;7.57;1.58;;;;;;;;;;5036760;27;93147;-70
2022/07/06 01:17:47;;;;;;;9.20;1.73;;;;;;;;;;5037918;27;94947;-70
2022/07/06 01:20:17;;;;;;;5.05;1.60;;;;;;;;;;5026169;28;92602;-70
2022/07/06 01:22:45;;;;;;;4.30;1.63;;;;;;;;;;5022207;27;93916;-70
2022/07/06 01:25:11;;;;;;;4.82;1.60;;;;;;;;;;5036656;27;93668;-70
2022/07/06 01:27:39;;;;;;;3.90;1.90;;;;;;;;;;5052998;27;93679;-70
2022/07/06 01:30:06;;;;;;;5.32;1.80;;;;;;;;;;5044247;27;94275;-70
2022/07/06 01:32:33;;;;;;;3.83;1.95;;;;;;;;;;5035803;27;92428;-70
2022/07/06 01:35:00;;;;;;;4.72;1.60;;;;;;;;;;5035842;27;91849;-69
2022/07/06 01:37:28;;;;;;;5.15;1.85;;;;;;;;;;5021283;28;92535;-71
2022/07/06 01:39:57;;;;;;;5.15;1.65;;;;;;;;;;5020951;27;92779;-70
2022/07/06 01:42:24;;;;;;;2.97;1.38;;;;;;;;;;5021060;28;95938;-69
2022/07/06 01:44:50;;;;;;;2.90;1.60;;;;;;;;;;5017288;27;94519;-69
2022/07/06 01:47:23;;;;;;;4.20;1.55;;;;;;;;;;5040105;27;92551;-69
2022/07/06 01:49:51;;;;;;;4.10;1.83;;;;;;;;;;5023777;27;95489;-69
2022/07/06 01:52:19;;;;;;;7.05;1.95;;;;;;;;;;5034774;27;93138;-69
2022/07/06 01:54:46;;;;;;;5.68;1.50;;;;;;;;;;5023412;27;92586;-70
2022/07/06 01:57:12;;;;;;;8.52;1.77;;;;;;;;;;5034284;27;98523;-69
2022/07/06 01:59:38;;;;;;;2.25;1.58;;;;;;;;;;5036741;27;98196;-69
2022/07/06 02:02:05;;;;;;;4.40;1.60;;;;;;;;;;5022239;27;99529;-72
2022/07/06 02:04:31;;;;;;;6.35;2.00;;;;;;;;;;5018898;28;99837;-70
2022/07/06 02:06:58;;;;;;;1.70;1.60;;;;;;;;;;5012763;27;99542;-70
2022/07/06 02:09:25;;;;;;;2.10;1.65;;;;;;;;;;5038154;27;99580;-69
2022/07/06 02:11:53;;;;;;;3.40;1.60;;;;;;;;;;5020413;27;99473;-70
2022/07/06 02:14:19;;;;;;;3.08;1.58;;;;;;;;;;5013971;27;98683;-71
2022/07/06 02:16:46;;;;;;;3.42;1.73;;;;;;;;;;5014930;28;101381;-71
2022/07/06 02:19:16;;;;;;;4.43;1.60;;;;;;;;;;5030314;27;98982;-70
2022/07/06 02:21:44;;;;;;;4.55;1.77;;;;;;;;;;5016114;28;98737;-70
2022/07/06 02:24:11;;;;;;;5.15;1.73;;;;;;;;;;5048203;27;98532;-70
2022/07/06 02:26:39;;;;;;;6.20;1.67;;;;;;;;;;5013551;27;100327;-69
2022/07/06 02:29:05;;;;;;;6.10;1.70;;;;;;;;;;5012148;27;100698;-70
2022/07/06 02:31:32;;;;;;;3.33;1.70;;;;;;;;;;5040379;27;102221;-70
2022/07/06 02:33:59;;;;;;;11.32;2.10;;;;;;;;;;5024235;27;99084;-70
2022/07/06 02:36:26;;;;;;;4.03;1.80;;;;;;;;;;5022078;27;101143;-70
2022/07/06 02:38:52;;;;;;;4.05;1.88;;;;;;;;;;5017742;27;100306;-71
2022/07/06 02:41:18;;;;;;;4.72;1.63;;;;;;;;;;5013187;27;98553;-69
2022/07/06 02:43:45;;;;;;;4.30;1.83;;;;;;;;;;5019275;27;100839;-69
2022/07/06 02:46:12;;;;;;;2.78;2.08;;;;;;;;;;5043535;27;98509;-69
2022/07/06 02:48:40;;;;;;;2.38;1.23;;;;;;;;;;5013278;27;99083;-71
2022/07/06 02:51:06;;;;;;;7.68;1.42;;;;;;;;;;5018038;27;101699;-71
2022/07/06 02:53:33;;;;;;;3.63;1.60;;;;;;;;;;5014064;27;98647;-69
2022/07/06 02:56:00;;;;;;;6.00;1.60;;;;;;;;;;5030773;27;101654;-71
2022/07/06 02:58:27;;;;;;;3.20;1.50;;;;;;;;;;5011376;27;102020;-69
2022/07/06 03:00:54;;;;;;;4.85;1.38;;;;;;;;;;5026089;27;98634;-69
2022/07/06 03:03:21;;;;;;;5.75;1.77;;;;;;;;;;5016629;28;99696;-69
2022/07/06 03:05:48;;;;;;;2.60;1.80;;;;;;;;;;5044246;27;100645;-69
2022/07/06 03:08:16;;;;;;;3.38;1.40;;;;;;;;;;5017546;28;101124;-70
2022/07/06 03:10:42;;;;;;;3.92;1.48;;;;;;;;;;5026401;27;101177;-70
2022/07/06 03:13:09;;;;;;;4.22;1.70;;;;;;;;;;5018047;28;98739;-69
2022/07/06 03:15:36;;;;;;;2.85;1.52;;;;;;;;;;5029863;27;100345;-69
2022/07/06 03:18:03;;;;;;;2.40;1.30;;;;;;;;;;5011517;28;100723;-69
2022/07/06 03:20:30;;;;;;;3.65;1.40;;;;;;;;;;5011355;27;99518;-70
2022/07/06 03:22:57;;;;;;;6.18;1.95;;;;;;;;;;5012305;28;99646;-71
2022/07/06 03:25:24;;;;;;;4.38;1.60;;;;;;;;;;5010606;28;99274;-69
2022/07/06 03:27:51;;;;;;;2.38;2.13;;;;;;;;;;5016329;27;99063;-69
2022/07/06 03:30:19;;;;;;;3.33;2.00;;;;;;;;;;5011884;28;101641;-71
2022/07/06 03:32:51;;;;;;;4.47;1.40;;;;;;;;;;5019799;27;98609;-69
2022/07/06 03:35:19;;;;;;;3.60;1.45;;;;;;;;;;5017481;27;101222;-69
2022/07/06 03:37:47;;;;;;;2.08;1.30;;;;;;;;;;5014164;27;98502;-69
2022/07/06 03:40:14;;;;;;;5.43;2.45;;;;;;;;;;5011253;28;98806;-69
2022/07/06 03:42:43;;;;;;;3.72;1.63;;;;;;;;;;5011696;27;98911;-69
2022/07/06 03:45:10;;;;;;;4.40;1.40;;;;;;;;;;5010898;28;100001;-70
2022/07/06 03:47:39;;;;;;;3.35;1.30;;;;;;;;;;5019745;28;100285;-70
2022/07/06 03:50:05;;;;;;;3.15;1.60;;;;;;;;;;5011034;27;100164;-69
2022/07/06 03:52:34;;;;;;;3.75;1.20;;;;;;;;;;5012157;28;98542;-70
2022/07/06 03:55:00;;;;;;;2.70;1.38;;;;;;;;;;5028670;27;101890;-70
2022/07/06 03:57:29;;;;;;;4.93;1.95;;;;;;;;;;5017452;28;101685;-70
2022/07/06 03:59:59;;;;;;;4.53;1.45;;;;;;;;;;5010635;27;99060;-71
2022/07/06 04:02:26;;;;;;;2.10;1.23;;;;;;;;;;5021910;27;101081;-70
2022/07/06 04:04:53;;;;;;;4.15;1.00;;;;;;;;;;5012113;27;101110;-71
2022/07/06 04:07:21;;;;;;;5.38;1.50;;;;;;;;;;5013980;27;98627;-71
2022/07/06 04:09:48;;;;;;;9.90;1.50;;;;;;;;;;5019960;28;100750;-69
2022/07/06 04:12:14;;;;;;;5.20;1.40;;;;;;;;;;5022217;27;98754;-70
2022/07/06 04:14:42;;;;;;;1.85;1.10;;;;;;;;;;5023361;28;101039;-72
2022/07/06 04:19:55;;;;;;;5.20;1.20;;;;;;;;;;5015213;28;100095;-71
2022/07/06 04:22:21;;;;;;;3.97;1.50;;;;;;;;;;5018901;27;99141;-71
2022/07/06 04:24:48;;;;;;;3.53;1.48;;;;;;;;;;5010583;28;101303;-70
2022/07/06 04:27:15;;;;;;;2.63;1.20;;;;;;;;;;5011552;27;99243;-71
2022/07/06 04:29:42;;;;;;;3.70;1.17;;;;;;;;;;5023558;27;98655;-69
2022/07/06 04:32:09;;;;;;;6.00;1.30;;;;;;;;;;5016868;27;101100;-69
2022/07/06 04:34:35;;;;;;;3.42;1.35;;;;;;;;;;5010631;27;100188;-69
2022/07/06 04:37:02;;;;;;;2.03;1.35;;;;;;;;;;5017581;28;99351;-69
2022/07/06 04:39:31;;;;;;;3.38;1.40;;;;;;;;;;5011034;27;98603;-69
2022/07/06 04:41:58;;;;;;;3.70;1.15;;;;;;;;;;5029331;27;99834;-69
2022/07/06 04:44:24;;;;;;;11.50;1.65;;;;;;;;;;5016914;27;101394;-72
2022/07/06 04:46:51;;;;;;;6.32;1.05;;;;;;;;;;5012312;28;98631;-72
2022/07/06 04:49:17;;;;;;;3.42;1.40;;;;;;;;;;5010016;27;101542;-69
2022/07/06 04:51:44;;;;;;;1.88;1.17;;;;;;;;;;5030009;27;98351;-70
2022/07/06 04:54:10;;;;;;;2.55;1.15;;;;;;;;;;5013072;28;98693;-70
2022/07/06 04:56:37;;;;;;;2.38;1.40;;;;;;;;;;5025919;27;100074;-69
2022/07/06 04:59:04;;;;;;;4.43;1.40;;;;;;;;;;5010407;28;99366;-69
2022/07/06 05:01:31;;;;;;;1.48;0.93;;;;;;;;;;5010668;27;101637;-69
2022/07/06 05:03:58;;;;;;;4.25;1.20;;;;;;;;;;5009312;28;101344;-71
2022/07/06 05:06:25;;;;;;;3.78;1.13;;;;;;;;;;5011110;27;100670;-71
2022/07/06 05:08:51;;;;;;;6.43;1.33;;;;;;;;;;5030551;27;100088;-71
2022/07/06 05:11:18;;;;;;;7.90;1.50;;;;;;;;;;5021710;28;99601;-69
2022/07/06 05:13:46;;;;;;;5.63;0.98;;;;;;;;;;5009844;27;100350;-69
2022/07/06 05:16:12;;;;;;;6.18;1.27;;;;;;;;;;5014916;28;101901;-70
2022/07/06 05:18:39;;;;;;;3.53;1.30;;;;;;;;;;5017480;27;98989;-69
2022/07/06 05:21:05;;;;;;;6.28;1.15;;;;;;;;;;5010841;28;101652;-69
2022/07/06 05:23:33;;;;;;;3.72;0.95;;;;;;;;;;5028622;27;101057;-70
2022/07/06 05:26:00;;;;;;;2.92;1.20;;;;;;;;;;5010351;28;98794;-70
2022/07/06 05:28:28;;;;;;;6.07;1.52;;;;;;;;;;5011838;27;98934;-70
2022/07/06 05:31:03;;;;;;;7.90;1.58;;;;;;;;;;5016979;28;100329;-70
2022/07/06 05:33:29;;;;;;;4.28;1.05;;;;;;;;;;5012134;27;98712;-70
2022/07/06 05:35:56;;;;;;;2.67;1.13;;;;;;;;;;5020139;27;102523;-70
2022/07/06 05:38:26;;;;;;;3.80;1.50;;;;;;;;;;5011028;28;99078;-70
2022/07/06 05:40:54;;;;;;;4.72;1.05;;;;;;;;;;5016590;27;98914;-70
2022/07/06 05:43:21;;;;;;;4.88;1.10;;;;;;;;;;5013810;28;100416;-70
2022/07/06 05:45:48;;;;;;;6.45;1.50;;;;;;;;;;5011052;28;98710;-70
2022/07/06 05:51:02;;;;;;;4.28;1.38;;;;;;;;;;5025562;28;99775;-70
2022/07/06 05:53:30;;;;;;;5.45;1.15;;;;;;;;;;5011528;28;101947;-71
2022/07/06 05:55:56;;;;;;;1.70;0.95;;;;;;;;;;5016991;28;100607;-70
2022/07/06 05:58:24;;;;;;;5.63;1.40;;;;;;;;;;5018819;28;99388;-71
2022/07/06 06:00:53;;;;;;;1.95;0.88;;;;;;;;;;5012940;28;99140;-71
2022/07/06 06:03:19;;;;;;;6.82;1.20;;;;;;;;;;5015632;27;101190;-71
2022/07/06 06:05:48;;;;;;;10.48;1.38;;;;;;;;;;5013512;28;97981;-70
2022/07/06 06:08:17;;;;;;;7.88;1.42;;;;;;;;;;5016525;28;100070;-71
2022/07/06 06:10:44;;;;;;;4.22;1.05;;;;;;;;;;5017022;28;101761;-71
2022/07/06 06:13:13;;;;;;;4.40;1.50;;;;;;;;;;5015924;28;99408;-71
2022/07/06 06:15:40;;;;;;;5.18;1.33;;;;;;;;;;5018124;28;99957;-71
2022/07/06 06:18:06;;;;;;;9.48;1.50;;;;;;;;;;5015081;28;99705;-71
2022/07/06 06:20:33;;;;;;;2.47;1.08;;;;;;;;;;5031541;28;99096;-71
2022/07/06 06:23:00;;;;;;;2.75;1.20;;;;;;;;;;5011880;28;100054;-71
2022/07/06 06:25:36;;;;;;;2.58;0.90;;;;;;;;;;5018090;27;98631;-71
2022/07/06 06:28:04;;;;;;;4.65;1.13;;;;;;;;;;5018338;28;99224;-71
2022/07/06 06:30:30;;;;;;;3.35;0.90;;;;;;;;;;5015413;27;98611;-71
2022/07/06 06:33:16;;;;;;;7.05;1.55;;;;;;;;;;5014440;28;99958;-71
2022/07/06 06:35:46;;;;;;;4.03;1.38;;;;;;;;;;5017396;28;100246;-71
2022/07/06 06:38:13;;;;;;;3.65;0.93;;;;;;;;;;5015345;27;100064;-69
2022/07/06 06:40:39;;;;;;;5.68;1.02;;;;;;;;;;5019571;28;98535;-71
2022/07/06 06:43:06;;;;;;;2.92;1.10;;;;;;;;;;5031520;28;100056;-69
2022/07/06 06:45:36;;;;;;;8.27;1.25;;;;;;;;;;5019873;28;99252;-68
2022/07/06 06:48:03;;;;;;;2.72;1.17;;;;;;;;;;5012689;28;101544;-69
2022/07/06 06:50:29;;;;;;;5.18;1.17;;;;;;;;;;5008547;28;99416;-71
2022/07/06 06:52:56;;;;;;;7.65;0.75;;;;;;;;;;5011547;28;98539;-71
2022/07/06 06:55:22;;;;;;;3.50;1.13;;;;;;;;;;5016197;28;99618;-71
2022/07/06 06:57:48;;;;;;;4.70;1.45;;;;;;;;;;5011958;28;99150;-70
2022/07/06 07:00:15;;;;;;;5.00;1.00;;;;;;;;;;5013886;28;99550;-69
2022/07/06 07:02:44;;;;;;;5.68;1.10;;;;;;;;;;5012114;27;100497;-69
2022/07/06 07:05:10;;;;;;;3.22;1.10;;;;;;;;;;5014722;28;100583;-69
2022/07/06 07:07:36;;;;;;;3.42;1.23;;;;;;;;;;5017484;28;99916;-69
2022/07/06 07:10:04;;;;;;;6.70;1.05;;;;;;;;;;5008802;28;100199;-69
2022/07/06 07:12:30;;;;;;;2.75;0.93;;;;;;;;;;5009997;27;100349;-69
2022/07/06 07:14:57;;;;;;;2.75;0.70;;;;;;;;;;5011915;28;100071;-69
2022/07/06 07:17:23;;;;;;;2.63;0.70;;;;;;;;;;5011411;28;100253;-69
2022/07/06 07:19:50;;;;;;;1.38;0.88;;;;;;;;;;5015905;28;97823;-69
2022/07/06 07:22:16;;;;;;;1.20;0.70;;;;;;;;;;5011994;28;99232;-69
2022/07/06 07:24:42;;;;;;;2.70;0.85;;;;;;;;;;5008561;28;100822;-69
2022/07/06 07:27:09;;;;;;;2.10;0.65;;;;;;;;;;5023361;28;99425;-69
2022/07/06 07:29:35;;;;;;;3.45;1.10;;;;;;;;;;5011826;28;101733;-69
2022/07/06 07:32:01;;;;;;;0.50;0.50;;;;;;;;;;5010788;28;98680;-70
2022/07/06 07:34:28;;;;;;;5.07;0.90;;;;;;;;;;5009864;27;100523;-70
2022/07/06 07:36:54;;;;;;;1.48;0.70;;;;;;;;;;5021203;28;100421;-70
2022/07/06 07:39:20;;;;;;;3.33;0.70;;;;;;;;;;5010555;28;99387;-70
2022/07/06 07:41:50;;;;;;;1.40;0.75;;;;;;;;;;5010190;28;99906;-70
2022/07/06 07:44:16;;;;;;;4.47;1.08;;;;;;;;;;5015030;27;100214;-70
2022/07/06 07:46:43;;;;;;;3.25;0.73;;;;;;;;;;5035625;27;98630;-70
2022/07/06 07:49:09;;;;;;;1.17;0.70;;;;;;;;;;5042137;27;100154;-70
2022/07/06 07:51:37;;;;;;;2.00;0.80;;;;;;;;;;5018549;27;100022;-70
2022/07/06 07:54:03;;;;;;;1.77;0.98;;;;;;;;;;5034453;27;101153;-70
2022/07/06 07:56:30;;;;;;;1.80;0.65;;;;;;;;;;5029651;27;100374;-70
2022/07/06 07:58:56;;;;;;;1.73;0.80;;;;;;;;;;5029359;27;99002;-70
2022/07/06 08:01:27;;;;;;;2.20;0.73;;;;;;;;;;5018650;27;100972;-70
2022/07/06 08:03:54;;;;;;;1.95;0.90;;;;;;;;;;5032920;27;100982;-70
2022/07/06 08:06:20;;;;;;;5.35;1.10;;;;;;;;;;5037048;27;98579;-70
2022/07/06 08:08:47;;;;;;;3.85;1.00;;;;;;;;;;5048916;27;100100;-70
2022/07/06 08:11:13;;;;;;;2.90;0.65;;;;;;;;;;5029926;27;98815;-70
2022/07/06 08:13:44;;;;;;;2.65;0.98;;;;;;;;;;5044910;27;99924;-70
2022/07/06 08:16:11;;;;;;;3.05;0.60;;;;;;;;;;5028609;27;100977;-70
2022/07/06 08:18:37;;;;;;;3.25;0.80;;;;;;;;;;5029440;27;98535;-70
2022/07/06 08:21:04;;;;;;;3.75;1.13;;;;;;;;;;5028686;27;101609;-70
2022/07/06 08:23:49;;;;;;;2.22;0.88;;;;;;;;;;5036969;27;100649;-69
2022/07/06 08:26:16;;;;;;;4.03;1.10;;;;;;;;;;5029457;27;100167;-70
2022/07/06 08:28:43;;;;;;;2.17;0.80;;;;;;;;;;5035864;27;100111;-70
2022/07/06 08:31:10;;;;;;;2.55;1.00;;;;;;;;;;5031264;27;100127;-70
2022/07/06 08:33:56;;;;;;;1.75;0.80;;;;;;;;;;5029614;27;100033;-73
2022/07/06 08:36:23;;;;;;;4.03;1.20;;;;;;;;;;5017592;28;100000;-72
2022/07/06 08:38:50;;;;;;;4.13;1.05;;;;;;;;;;5028148;27;99859;-70
2022/07/06 08:41:20;;;;;;;3.38;0.80;;;;;;;;;;5027975;27;100474;-69
2022/07/06 08:43:51;;;;;;;3.65;0.82;;;;;;;;;;5038658;27;100246;-69
2022/07/06 08:46:18;;;;;;;5.47;0.75;;;;;;;;;;5042784;27;98957;-69
2022/07/06 08:48:45;;;;;;;2.13;0.90;;;;;;;;;;5044636;27;99999;-69
2022/07/06 08:51:12;;;;;;;4.68;1.02;;;;;;;;;;5010822;28;101605;-69
2022/07/06 08:53:41;;;;;;;3.83;1.08;;;;;;;;;;5032325;27;98869;-68
2022/07/06 08:56:07;;;;;;;4.47;1.30;;;;;;;;;;5031912;27;101082;-69
2022/07/06 08:58:34;;;;;;;3.40;1.17;;;;;;;;;;5049645;27;98279;-69
2022/07/06 09:01:01;;;;;;;4.38;0.70;;;;;;;;;;5037253;27;99139;-69
2022/07/06 09:03:28;;;;;;;1.77;0.80;;;;;;;;;;5027732;27;100249;-69
2022/07/06 09:05:58;;;;;;;6.35;0.90;;;;;;;;;;5028386;27;99389;-69
2022/07/06 09:08:26;;;;;;;1.27;0.88;;;;;;;;;;5043613;27;101225;-69
2022/07/06 09:10:53;;;;;;;1.77;0.70;;;;;;;;;;5037023;27;100408;-69
2022/07/06 09:13:19;;;;;;;2.72;0.93;;;;;;;;;;5045333;27;98574;-70
2022/07/06 09:15:45;;;;;;;1.20;0.70;;;;;;;;;;5045381;27;99065;-70
2022/07/06 09:18:13;;;;;;;1.88;1.08;;;;;;;;;;5044243;27;99027;-69
2022/07/06 09:20:40;;;;;;;2.05;0.95;;;;;;;;;;5052267;27;100100;-70
2022/07/06 09:23:06;;;;;;;2.72;1.00;;;;;;;;;;5051980;27;99425;-70
2022/07/06 09:25:41;;;;;;;0.80;0.70;;;;;;;;;;5051583;27;98661;-69
2022/07/06 09:28:07;;;;;;;4.07;0.95;;;;;;;;;;5043313;27;100326;-70
2022/07/06 09:30:39;;;;;;;1.85;0.80;;;;;;;;;;5046193;27;102860;-69
2022/07/06 09:33:07;;;;;;;1.65;0.70;;;;;;;;;;5032295;27;98663;-69
2022/07/06 09:35:37;;;;;;;3.75;1.00;;;;;;;;;;5039702;27;100046;-69
2022/07/06 09:38:08;;;;;;;3.40;1.15;;;;;;;;;;5035518;27;100648;-69
2022/07/06 09:40:36;;;;;;;4.68;0.73;;;;;;;;;;5032179;27;99984;-70
2022/07/06 09:43:18;;;;;;;1.88;1.10;;;;;;;;;;5039205;27;100234;-70
2022/07/06 09:45:46;;;;;;;2.03;1.45;;;;;;;;;;5030726;27;98591;-69
2022/07/06 09:48:18;;;;;;;4.88;0.90;;;;;;;;;;5032095;27;99015;-69
2022/07/06 09:50:46;;;;;;;3.47;0.80;;;;;;;;;;5047069;27;100291;-69
2022/07/06 09:53:14;;;;;;;4.13;0.88;;;;;;;;;;5031462;27;98634;-70
2022/07/06 09:55:47;;;;;;;1.98;0.80;;;;;;;;;;5030355;27;99519;-70
2022/07/06 09:58:14;;;;;;;5.25;0.80;;;;;;;;;;5053848;27;100053;-69
2022/07/06 10:00:41;;;;;;;3.97;0.75;;;;;;;;;;5042765;27;99788;-70
2022/07/06 10:03:08;;;;;;;2.45;0.90;;;;;;;;;;5040069;27;99647;-69
2022/07/06 10:05:36;;;;;;;2.05;0.70;;;;;;;;;;5031401;27;99385;-69
2022/07/06 10:08:05;;;;;;;1.13;0.70;;;;;;;;;;5032496;27;99554;-69
2022/07/06 10:10:32;;;;;;;0.40;0.40;;;;;;;;;;5035855;27;100222;-69
2022/07/06 10:12:59;;;;;;;6.30;0.80;;;;;;;;;;5049122;27;98231;-69
2022/07/06 10:15:27;;;;;;;1.80;0.60;;;;;;;;;;5039835;27;99332;-69
2022/07/06 10:17:54;;;;;;;1.48;0.82;;;;;;;;;;5031062;27;100238;-69
2022/07/06 10:20:21;;;;;;;2.05;1.33;;;;;;;;;;5041051;27;99332;-69
2022/07/06 10:22:48;;;;;;;1.45;0.70;;;;;;;;;;5030460;27;99559;-69
2022/07/06 10:25:16;;;;;;;3.15;0.60;;;;;;;;;;5030366;27;98542;-69
2022/07/06 10:27:44;;;;;;;2.10;0.80;;;;;;;;;;5044326;27;99923;-69
2022/07/06 10:30:11;;;;;;;2.92;0.70;;;;;;;;;;5040018;27;99261;-69
2022/07/06 10:32:39;;;;;;;2.20;0.68;;;;;;;;;;5031292;27;98642;-69
2022/07/06 10:35:05;;;;;;;1.08;0.50;;;;;;;;;;5038167;27;100174;-69
2022/07/06 10:37:33;;;;;;;1.55;0.70;;;;;;;;;;5034746;27;99426;-70
2022/07/06 10:42:45;;;;;;;1.92;0.70;;;;;;;;;;5033361;27;100221;-70
2022/07/06 10:45:14;;;;;;;3.67;1.23;;;;;;;;;;5030639;27;99240;-70
2022/07/06 10:47:41;;;;;;;1.45;0.88;;;;;;;;;;5044953;27;99664;-70
2022/07/06 10:50:07;;;;;;;2.15;0.80;;;;;;;;;;5029823;27;100128;-70
2022/07/06 10:52:52;;;;;;;0.80;0.50;;;;;;;;;;5030774;27;98640;-70
2022/07/06 10:55:32;;;;;;;1.65;0.70;;;;;;;;;;5039692;27;100285;-70
2022/07/06 10:57:58;;;;;;;2.15;0.82;;;;;;;;;;5050067;27;100937;-71
2022/07/06 11:00:25;;;;;;;1.48;0.60;;;;;;;;;;5042390;27;99825;-70
2022/07/06 11:02:51;;;;;;;2.60;0.93;;;;;;;;;;5029846;27;101235;-70
2022/07/06 11:05:40;;;;;;;1.38;0.82;;;;;;;;;;5033587;27;100218;-70
2022/07/06 11:08:41;;;;;;;0.77;0.73;;;;;;;;;;5030559;27;100018;-70
2022/07/06 11:11:12;;;;;;;0.60;0.60;;;;;;;;;;5029033;27;101134;-70
2022/07/06 11:13:48;;;;;;;2.75;0.90;;;;;;;;;;5030463;27;98657;-71
2022/07/06 11:16:15;;;;;;;4.60;0.90;;;;;;;;;;5029908;27;100019;-70
2022/07/06 11:18:45;;;;;;;0.77;0.63;;;;;;;;;;5029552;27;99454;-70
2022/07/06 11:21:19;;;;;;;1.40;0.50;;;;;;;;;;5030594;27;98653;-71
2022/07/06 11:23:46;;;;;;;1.17;0.57;;;;;;;;;;5036867;27;99134;-70
2022/07/06 11:26:13;;;;;;;1.85;0.77;;;;;;;;;;5029836;27;100286;-70
2022/07/06 11:28:39;;;;;;;2.83;0.57;;;;;;;;;;5033595;27;97906;-69
2022/07/06 11:31:06;;;;;;;1.70;0.85;;;;;;;;;;5033349;27;100280;-70
2022/07/06 11:33:32;;;;;;;1.40;0.68;;;;;;;;;;5047791;27;99176;-70
2022/07/06 11:36:16;;;;;;;7.40;0.70;;;;;;;;;;5042028;27;99957;-70
2022/07/06 11:38:42;;;;;;;2.15;0.73;;;;;;;;;;5029156;27;100283;-70
2022/07/06 11:41:09;;;;;;;1.02;0.80;;;;;;;;;;5030291;27;98931;-70
2022/07/06 11:43:37;;;;;;;2.35;0.70;;;;;;;;;;5037913;27;100034;-70
2022/07/06 11:46:03;;;;;;;7.32;1.40;;;;;;;;;;5028971;27;100188;-70
2022/07/06 11:48:30;;;;;;;1.63;0.80;;;;;;;;;;5030270;27;98521;-70
2022/07/06 11:50:57;;;;;;;3.25;0.90;;;;;;;;;;5037287;27;99950;-70
2022/07/06 11:53:24;;;;;;;3.50;1.02;;;;;;;;;;5041437;27;99195;-70
2022/07/06 11:55:51;;;;;;;1.38;0.63;;;;;;;;;;5041720;27;99137;-71
2022/07/06 11:58:24;;;;;;;2.90;0.77;;;;;;;;;;5041224;27;100123;-69
2022/07/06 12:01:07;;;;;;;2.20;0.77;;;;;;;;;;5029483;27;99306;-69
2022/07/06 12:03:34;;;;;;;2.75;1.20;;;;;;;;;;5029377;27;99996;-70
2022/07/06 12:06:14;;;;;;;1.80;0.88;;;;;;;;;;5028629;27;100127;-71
2022/07/06 12:08:41;;;;;;;1.70;0.90;;;;;;;;;;5029551;27;98562;-71
2022/07/06 12:11:08;;;;;;;2.33;0.73;;;;;;;;;;5032307;27;100192;-69
2022/07/06 12:13:40;;;;;;;1.15;0.85;;;;;;;;;;5036942;27;99006;-69
2022/07/06 12:16:11;;;;;;;1.17;0.77;;;;;;;;;;5029313;27;99000;-69
2022/07/06 12:18:41;;;;;;;1.20;0.93;;;;;;;;;;5029676;27;99384;-69
2022/07/06 12:21:08;;;;;;;4.03;0.70;;;;;;;;;;5048819;27;98558;-69
2022/07/06 12:23:38;;;;;;;1.33;0.70;;;;;;;;;;5043418;27;100126;-69
2022/07/06 12:26:04;;;;;;;2.10;0.90;;;;;;;;;;5040004;27;101214;-69
2022/07/06 12:28:31;;;;;;;4.60;1.10;;;;;;;;;;5041442;27;98576;-70
2022/07/06 12:30:57;;;;;;;2.10;0.70;;;;;;;;;;5038415;27;99774;-69
2022/07/06 12:33:24;;;;;;;2.13;0.98;;;;;;;;;;5032984;27;100167;-70
2022/07/06 12:35:50;;;;;;;1.17;0.82;;;;;;;;;;5030372;27;99271;-71
2022/07/06 12:38:26;;;;;;;3.17;0.80;;;;;;;;;;5036150;27;101116;-70
2022/07/06 12:40:53;;;;;;;3.40;0.90;;;;;;;;;;5032066;27;98633;-70
2022/07/06 12:43:54;;;;;;;1.92;0.70;;;;;;;;;;5033377;27;99322;-70
2022/07/06 12:46:31;;;;;;;5.20;1.35;;;;;;;;;;4939669;28;99672;-70
2022/07/06 12:48:58;;;;;;;4.68;0.82;;;;;;;;;;5021437;27;101680;-70
2022/07/06 12:51:47;;;;;;;1.85;0.70;;;;;;;;;;5030195;27;100011;-70
2022/07/06 12:54:14;;;;;;;2.05;0.80;;;;;;;;;;5033672;27;100307;-70
2022/07/06 12:57:00;;;;;;;2.35;0.80;;;;;;;;;;5030046;27;98884;-70
2022/07/06 12:59:26;;;;;;;1.60;1.17;;;;;;;;;;5028861;27;100412;-70
2022/07/06 13:01:56;;;;;;;1.10;0.70;;;;;;;;;;5025816;27;98681;-70
2022/07/06 13:04:24;;;;;;;3.47;1.00;;;;;;;;;;5034289;27;99853;-70
2022/07/06 13:06:50;;;;;;;2.20;0.77;;;;;;;;;;5032221;27;100141;-70
2022/07/06 13:09:18;;;;;;;1.77;0.80;;;;;;;;;;5027923;27;99696;-69
2022/07/06 13:11:46;;;;;;;4.10;0.80;;;;;;;;;;5031142;27;100264;-69
2022/07/06 13:14:14;;;;;;;1.58;1.00;;;;;;;;;;5030139;27;100767;-70
2022/07/06 13:16:40;;;;;;;4.03;1.00;;;;;;;;;;5031160;27;100204;-69
2022/07/06 13:19:07;;;;;;;3.97;0.80;;;;;;;;;;5034038;27;100197;-69
2022/07/06 13:21:33;;;;;;;1.92;0.80;;;;;;;;;;5030633;27;99192;-70
2022/07/06 13:24:00;;;;;;;3.70;1.13;;;;;;;;;;5031525;27;100034;-70
2022/07/06 13:26:26;;;;;;;1.77;1.00;;;;;;;;;;5026530;27;100093;-70
2022/07/06 13:28:52;;;;;;;1.52;0.80;;;;;;;;;;5028033;27;99479;-70
2022/07/06 13:31:19;;;;;;;1.02;0.75;;;;;;;;;;5031686;27;98998;-70
2022/07/06 13:33:45;;;;;;;4.70;1.23;;;;;;;;;;5026916;27;99345;-70
2022/07/06 13:36:11;;;;;;;1.13;0.73;;;;;;;;;;5034436;27;98579;-70
2022/07/06 13:38:38;;;;;;;2.80;1.10;;;;;;;;;;5029948;27;100012;-70
2022/07/06 13:41:05;;;;;;;1.73;0.73;;;;;;;;;;5035505;27;100862;-70
2022/07/06 13:43:35;;;;;;;1.33;0.70;;;;;;;;;;5027923;27;101036;-69
2022/07/06 13:46:03;;;;;;;2.03;1.00;;;;;;;;;;5026389;27;100133;-70
2022/07/06 13:48:30;;;;;;;2.95;0.93;;;;;;;;;;5038171;27;100685;-69
2022/07/06 13:50:56;;;;;;;2.28;0.60;;;;;;;;;;5046145;27;99157;-70
2022/07/06 13:53:23;;;;;;;2.72;0.85;;;;;;;;;;5040768;27;100258;-69
2022/07/06 13:55:49;;;;;;;2.83;0.88;;;;;;;;;;5030717;27;98592;-70
2022/07/06 13:58:16;;;;;;;3.67;0.88;;;;;;;;;;5033879;27;100225;-70
2022/07/06 14:00:42;;;;;;;1.20;0.80;;;;;;;;;;5031977;27;100292;-70
2022/07/06 14:03:09;;;;;;;4.65;0.95;;;;;;;;;;5054488;27;98565;-70
2022/07/06 14:05:36;;;;;;;2.47;1.20;;;;;;;;;;5047975;27;100668;-70
2022/07/06 14:08:02;;;;;;;2.42;0.82;;;;;;;;;;5042415;27;98653;-70
2022/07/06 14:10:28;;;;;;;2.97;0.90;;;;;;;;;;5037045;27;100052;-70
2022/07/06 14:12:55;;;;;;;1.58;0.80;;;;;;;;;;5040386;27;100196;-70
2022/07/06 14:15:21;;;;;;;2.80;1.08;;;;;;;;;;5036037;27;99168;-70
2022/07/06 14:17:48;;;;;;;2.35;0.93;;;;;;;;;;5032411;27;100207;-70
2022/07/06 14:20:15;;;;;;;1.63;0.65;;;;;;;;;;5029388;27;100093;-70
2022/07/06 14:22:41;;;;;;;7.03;1.23;;;;;;;;;;5043989;27;97928;-70
2022/07/06 14:25:08;;;;;;;1.77;1.13;;;;;;;;;;5034410;27;100141;-70
2022/07/06 14:27:35;;;;;;;3.58;1.45;;;;;;;;;;5033832;27;101734;-70
2022/07/06 14:30:01;;;;;;;8.65;1.13;;;;;;;;;;5029737;27;102380;-69
2022/07/06 14:32:28;;;;;;;7.15;0.88;;;;;;;;;;5026984;27;100914;-70
2022/07/06 14:34:54;;;;;;;1.83;1.27;;;;;;;;;;5033464;27;98797;-71
2022/07/06 14:37:21;;;;;;;3.00;0.98;;;;;;;;;;5033052;27;100230;-69
2022/07/06 14:39:48;;;;;;;5.97;1.27;;;;;;;;;;5030508;27;100106;-69
2022/07/06 14:42:14;;;;;;;5.50;1.50;;;;;;;;;;5040099;27;99122;-70
2022/07/06 14:44:41;;;;;;;4.22;1.10;;;;;;;;;;5035711;27;100000;-69
2022/07/06 14:47:07;;;;;;;1.23;1.00;;;;;;;;;;5032412;27;98783;-69
2022/07/06 14:49:33;;;;;;;5.53;1.33;;;;;;;;;;5029976;27;100767;-69
2022/07/06 14:52:00;;;;;;;1.52;1.20;;;;;;;;;;5032559;27;101120;-69